Time;durP1;ratioP1;P1;durP2;ratioP2;P2;SDS_P1;SDS_P2;PMS_P1;PMS_P2;Temp;Humidity;BMP_temperature;BMP_pressure;BME280_temperature;BME280_humidity;BME280_pressure;Samples;Min_cycle;Max_cycle;Signal;HPM_P1;HPM_P2
2022/03/19 00:01:01;;;;;;;10.77;4.40;;;9.40;72.50;;;;;;5022378;28;20114;-69
2022/03/19 00:03:27;;;;;;;11.43;4.35;;;9.40;72.50;;;;;;5020611;28;20112;-69
2022/03/19 00:05:53;;;;;;;10.07;4.05;;;9.30;72.80;;;;;;5022401;28;20032;-68
2022/03/19 00:08:19;;;;;;;13.55;4.18;;;9.30;72.90;;;;;;5019554;28;20427;-69
2022/03/19 00:10:47;;;;;;;10.13;3.65;;;9.30;72.80;;;;;;5023848;28;20033;-69
2022/03/19 00:13:13;;;;;;;10.63;4.07;;;9.40;72.50;;;;;;5026217;28;20032;-69
2022/03/19 00:15:40;;;;;;;9.20;3.58;;;9.30;72.70;;;;;;5028995;28;20017;-69
2022/03/19 00:18:06;;;;;;;10.48;4.03;;;9.40;72.50;;;;;;5024150;28;20103;-69
2022/03/19 00:20:32;;;;;;;10.35;3.40;;;9.30;72.40;;;;;;5029729;28;20033;-68
2022/03/19 00:22:59;;;;;;;7.65;3.00;;;9.30;72.30;;;;;;5026015;28;20373;-68
2022/03/19 00:25:24;;;;;;;11.00;4.30;;;9.40;72.10;;;;;;5021937;28;20029;-68
2022/03/19 00:27:50;;;;;;;10.18;4.20;;;9.30;72.40;;;;;;5029584;28;20022;-69
2022/03/19 00:30:16;;;;;;;8.68;3.42;;;9.30;72.80;;;;;;5029824;28;20438;-68
2022/03/19 00:32:41;;;;;;;6.00;2.80;;;9.30;72.50;;;;;;5029668;28;20097;-69
2022/03/19 00:35:08;;;;;;;8.15;3.42;;;9.30;72.30;;;;;;5027638;28;20056;-67
2022/03/19 00:37:43;;;;;;;8.30;3.58;;;9.30;72.00;;;;;;5029075;28;20064;-68
2022/03/19 00:40:10;;;;;;;8.70;3.42;;;9.30;72.20;;;;;;5028612;28;20030;-68
2022/03/19 00:42:36;;;;;;;10.80;3.38;;;9.30;72.00;;;;;;5029470;28;20033;-68
2022/03/19 00:45:01;;;;;;;7.45;3.15;;;9.30;71.90;;;;;;5028689;28;20037;-69
2022/03/19 00:47:27;;;;;;;7.57;3.15;;;9.20;71.70;;;;;;5033206;28;20472;-70
2022/03/19 00:49:52;;;;;;;12.52;4.90;;;9.30;71.80;;;;;;5033758;28;20442;-69
2022/03/19 00:52:18;;;;;;;9.05;3.58;;;9.10;72.50;;;;;;5032449;28;20140;-70
2022/03/19 00:54:43;;;;;;;11.02;3.83;;;9.10;72.40;;;;;;5031795;28;20032;-69
2022/03/19 00:57:09;;;;;;;10.70;4.38;;;9.00;72.70;;;;;;5033399;28;20388;-70
2022/03/19 00:59:34;;;;;;;10.13;3.88;;;9.00;73.20;;;;;;5032727;28;20139;-69
2022/03/19 01:02:00;;;;;;;9.70;3.90;;;9.00;73.10;;;;;;5031769;28;20586;-69
2022/03/19 01:04:25;;;;;;;9.73;4.00;;;9.00;73.10;;;;;;5027130;28;20022;-69
2022/03/19 01:06:51;;;;;;;11.38;3.78;;;9.00;73.20;;;;;;5029691;28;20028;-68
2022/03/19 01:09:16;;;;;;;11.00;4.30;;;8.90;73.20;;;;;;5032785;28;20647;-69
2022/03/19 01:11:42;;;;;;;8.52;3.60;;;8.90;73.30;;;;;;5033419;28;20093;-69
2022/03/19 01:14:07;;;;;;;8.65;3.83;;;8.90;73.10;;;;;;5032442;28;20070;-69
2022/03/19 01:16:33;;;;;;;7.90;3.72;;;8.90;72.80;;;;;;5032980;28;20396;-69
2022/03/19 01:18:58;;;;;;;9.07;3.25;;;8.90;72.70;;;;;;5024250;28;20395;-70
2022/03/19 01:21:24;;;;;;;6.75;2.72;;;8.90;72.60;;;;;;5032860;28;20021;-69
2022/03/19 01:23:49;;;;;;;6.05;2.58;;;8.90;72.40;;;;;;5030810;28;20027;-68
2022/03/19 01:26:15;;;;;;;11.13;4.70;;;8.90;72.20;;;;;;5031602;28;20479;-69
2022/03/19 01:28:41;;;;;;;11.38;4.57;;;8.90;72.40;;;;;;5029583;28;20112;-69
2022/03/19 01:31:07;;;;;;;8.70;3.65;;;8.80;73.10;;;;;;5031997;28;20026;-69
2022/03/19 01:33:32;;;;;;;10.77;4.97;;;8.80;73.10;;;;;;5031691;28;20476;-69
2022/03/19 01:35:58;;;;;;;10.63;3.70;;;8.70;74.00;;;;;;5031927;28;20033;-68
2022/03/19 01:38:23;;;;;;;8.60;3.90;;;8.60;74.00;;;;;;5030809;28;20037;-70
2022/03/19 01:40:49;;;;;;;13.27;5.50;;;8.60;73.70;;;;;;5027070;28;21555;-70
2022/03/19 01:43:14;;;;;;;10.32;4.63;;;8.60;74.60;;;;;;5031897;28;20488;-70
2022/03/19 01:45:40;;;;;;;7.32;4.03;;;8.60;74.30;;;;;;5030131;28;20025;-70
2022/03/19 01:48:05;;;;;;;11.23;3.83;;;8.60;74.00;;;;;;5031168;28;20028;-70
2022/03/19 01:50:31;;;;;;;10.60;4.38;;;8.70;73.80;;;;;;5027243;28;20029;-69
2022/03/19 01:52:56;;;;;;;11.63;5.45;;;8.70;73.60;;;;;;5030461;28;20407;-69
2022/03/19 01:55:24;;;;;;;13.90;5.75;;;8.70;74.00;;;;;;5030691;28;20029;-70
2022/03/19 01:57:51;;;;;;;13.55;4.60;;;8.60;74.60;;;;;;5028762;28;20021;-70
2022/03/19 02:00:19;;;;;;;8.25;4.22;;;8.60;74.70;;;;;;5032394;28;20025;-69
2022/03/19 02:02:47;;;;;;;12.88;5.88;;;8.70;74.30;;;;;;5022971;28;20056;-69
2022/03/19 02:05:17;;;;;;;11.30;5.05;;;8.60;74.30;;;;;;5032117;28;20029;-70
2022/03/19 02:07:44;;;;;;;7.63;3.83;;;8.60;74.20;;;;;;5030735;28;20031;-68
2022/03/19 02:10:12;;;;;;;12.13;4.45;;;8.60;74.00;;;;;;5031666;28;20506;-69
2022/03/19 02:12:38;;;;;;;9.45;4.50;;;8.60;73.90;;;;;;5031935;28;20029;-69
2022/03/19 02:15:05;;;;;;;10.77;4.45;;;8.60;73.70;;;;;;5031945;28;20132;-68
2022/03/19 02:17:31;;;;;;;8.82;4.32;;;8.50;73.80;;;;;;5026878;28;20446;-69
2022/03/19 02:19:57;;;;;;;9.75;4.25;;;8.50;73.70;;;;;;5031067;28;20029;-70
2022/03/19 02:22:25;;;;;;;7.85;3.55;;;8.60;73.60;;;;;;5031100;28;20029;-70
2022/03/19 02:27:37;;;;;;;9.30;4.40;;;8.40;73.90;;;;;;5031374;28;20033;-69
2022/03/19 02:30:05;;;;;;;11.15;4.82;;;8.40;74.00;;;;;;5030905;28;20076;-69
2022/03/19 02:32:31;;;;;;;8.38;3.65;;;8.40;74.00;;;;;;5030006;28;20522;-70
2022/03/19 02:34:56;;;;;;;9.40;4.57;;;8.40;73.80;;;;;;5031790;28;20033;-68
2022/03/19 02:37:22;;;;;;;11.48;4.15;;;8.40;73.80;;;;;;5031552;28;20032;-69
2022/03/19 02:39:48;;;;;;;8.70;4.50;;;8.40;73.70;;;;;;5029792;28;20030;-69
2022/03/19 02:42:19;;;;;;;9.82;5.13;;;8.40;73.90;;;;;;5028629;28;20045;-69
2022/03/19 02:44:46;;;;;;;13.02;5.70;;;8.40;74.20;;;;;;5028935;28;20079;-68
2022/03/19 02:47:12;;;;;;;12.07;5.25;;;8.40;74.50;;;;;;5031566;28;20101;-70
2022/03/19 02:49:38;;;;;;;16.02;7.00;;;8.30;74.50;;;;;;5026800;28;20024;-69
2022/03/19 02:52:04;;;;;;;11.07;4.82;;;8.30;74.80;;;;;;5030792;28;20030;-69
2022/03/19 02:54:31;;;;;;;11.27;5.82;;;8.40;74.70;;;;;;5031350;28;20037;-68
2022/03/19 02:56:58;;;;;;;10.65;5.65;;;8.30;74.90;;;;;;5029879;28;20026;-68
2022/03/19 02:59:24;;;;;;;9.85;5.30;;;8.30;75.00;;;;;;5028882;28;20041;-68
2022/03/19 03:01:57;;;;;;;14.88;6.72;;;8.30;75.30;;;;;;5028843;28;20029;-69
2022/03/19 03:04:23;;;;;;;14.10;6.70;;;8.30;75.10;;;;;;5026901;28;20373;-69
2022/03/19 03:06:51;;;;;;;12.23;5.43;;;8.30;75.90;;;;;;5027620;28;20028;-68
2022/03/19 03:09:21;;;;;;;13.85;6.63;;;8.30;75.10;;;;;;5027759;28;20025;-69
2022/03/19 03:11:47;;;;;;;11.60;6.03;;;8.30;74.90;;;;;;5027982;28;20021;-68
2022/03/19 03:14:13;;;;;;;13.85;5.70;;;8.30;74.90;;;;;;5028715;28;20037;-69
2022/03/19 03:16:40;;;;;;;12.07;5.15;;;8.30;74.80;;;;;;5030125;28;20029;-69
2022/03/19 03:19:07;;;;;;;8.43;4.63;;;8.30;74.70;;;;;;5027836;28;20506;-69
2022/03/19 03:21:35;;;;;;;17.35;6.20;;;8.30;74.50;;;;;;5027769;28;20021;-69
2022/03/19 03:24:01;;;;;;;12.60;5.38;;;8.30;74.60;;;;;;5029382;28;20030;-69
2022/03/19 03:26:27;;;;;;;12.38;5.95;;;8.30;74.40;;;;;;5030287;28;20024;-68
2022/03/19 03:28:53;;;;;;;14.25;5.95;;;8.30;74.30;;;;;;5026867;28;20014;-69
2022/03/19 03:31:18;;;;;;;9.93;5.10;;;8.30;74.50;;;;;;5030296;28;20530;-70
2022/03/19 03:33:45;;;;;;;11.10;5.60;;;8.30;74.60;;;;;;5030311;28;20036;-69
2022/03/19 03:36:11;;;;;;;11.45;5.85;;;8.30;75.00;;;;;;5030683;28;20037;-69
2022/03/19 03:38:37;;;;;;;12.93;5.50;;;8.30;74.30;;;;;;5029915;28;20438;-70
2022/03/19 03:41:03;;;;;;;10.98;5.97;;;8.30;74.60;;;;;;5030832;28;20029;-70
2022/03/19 03:43:28;;;;;;;16.05;7.03;;;8.30;74.40;;;;;;5029183;28;20383;-70
2022/03/19 03:45:55;;;;;;;19.58;7.30;;;8.30;74.50;;;;;;5030538;28;20392;-69
2022/03/19 03:48:21;;;;;;;11.38;5.80;;;8.30;74.50;;;;;;5028564;28;20025;-69
2022/03/19 03:50:49;;;;;;;12.50;6.65;;;8.30;74.20;;;;;;5029752;28;20068;-69
2022/03/19 03:53:16;;;;;;;13.88;6.75;;;8.40;74.30;;;;;;5028570;28;20026;-68
2022/03/19 03:55:41;;;;;;;11.52;5.70;;;8.30;74.20;;;;;;5030938;28;20037;-69
2022/03/19 03:58:08;;;;;;;14.32;6.38;;;8.40;74.10;;;;;;5029728;28;20021;-68
2022/03/19 04:00:34;;;;;;;13.73;6.38;;;8.40;73.90;;;;;;5029586;28;20022;-70
2022/03/19 04:03:00;;;;;;;13.75;6.45;;;8.40;74.20;;;;;;5029314;28;20021;-68
2022/03/19 04:05:26;;;;;;;12.93;5.50;;;8.30;74.20;;;;;;5029861;28;20396;-68
2022/03/19 04:07:51;;;;;;;11.20;5.88;;;8.40;74.00;;;;;;5028966;28;20079;-67
2022/03/19 04:10:17;;;;;;;14.35;6.60;;;8.40;74.00;;;;;;5021797;28;20021;-67
2022/03/19 04:12:43;;;;;;;12.32;5.85;;;8.30;74.10;;;;;;5029147;28;20025;-67
2022/03/19 04:15:10;;;;;;;13.75;7.22;;;8.30;74.00;;;;;;5028389;28;20399;-69
2022/03/19 04:17:36;;;;;;;14.40;6.43;;;8.30;74.30;;;;;;5029903;28;20026;-70
2022/03/19 04:20:03;;;;;;;13.40;6.03;;;8.30;74.20;;;;;;5028597;28;20511;-69
2022/03/19 04:22:34;;;;;;;11.98;5.40;;;8.30;74.30;;;;;;5027631;28;20635;-70
2022/03/19 04:24:59;;;;;;;13.18;6.25;;;8.30;74.10;;;;;;5026167;28;20103;-69
2022/03/19 04:27:25;;;;;;;13.77;6.20;;;8.30;74.20;;;;;;5029988;28;20029;-70
2022/03/19 04:29:50;;;;;;;14.38;7.07;;;8.40;74.20;;;;;;5024013;28;20852;-69
2022/03/19 04:32:16;;;;;;;14.50;6.85;;;8.30;74.30;;;;;;5028790;28;20061;-68
2022/03/19 04:34:41;;;;;;;14.15;6.60;;;8.30;74.30;;;;;;5028498;28;20033;-69
2022/03/19 04:37:08;;;;;;;15.05;6.60;;;8.30;74.40;;;;;;5029320;28;20056;-69
2022/03/19 04:39:33;;;;;;;12.85;6.50;;;8.30;74.40;;;;;;5029045;28;20109;-69
2022/03/19 04:41:59;;;;;;;12.82;6.47;;;8.30;74.40;;;;;;5029219;28;20113;-70
2022/03/19 04:44:25;;;;;;;10.52;5.63;;;8.30;74.60;;;;;;5027979;28;20033;-69
2022/03/19 04:46:50;;;;;;;11.18;5.65;;;8.30;74.50;;;;;;5028916;28;20484;-70
2022/03/19 04:49:16;;;;;;;14.07;6.47;;;8.30;74.40;;;;;;5026193;28;20033;-70
2022/03/19 04:51:41;;;;;;;24.10;11.80;;;8.20;74.40;;;;;;5028629;28;20044;-71
2022/03/19 04:54:07;;;;;;;13.02;7.55;;;8.20;74.50;;;;;;5028482;28;20400;-69
2022/03/19 04:56:33;;;;;;;12.48;5.95;;;8.20;74.50;;;;;;5029246;28;20106;-69
2022/03/19 04:59:01;;;;;;;13.75;6.93;;;8.20;74.40;;;;;;5027880;28;20044;-68
2022/03/19 05:01:27;;;;;;;14.65;6.30;;;8.10;74.70;;;;;;5028879;28;20021;-68
2022/03/19 05:03:54;;;;;;;13.48;7.05;;;8.10;74.70;;;;;;5029381;28;20037;-67
2022/03/19 05:06:20;;;;;;;13.65;6.40;;;8.10;74.70;;;;;;5029035;28;20018;-67
2022/03/19 05:08:45;;;;;;;12.20;6.30;;;8.10;74.60;;;;;;5028595;28;20080;-68
2022/03/19 05:11:16;;;;;;;11.93;5.70;;;8.10;74.70;;;;;;5028813;28;20778;-67
2022/03/19 05:13:48;;;;;;;11.80;5.50;;;8.10;74.60;;;;;;5027697;28;20118;-68
2022/03/19 05:16:14;;;;;;;14.40;5.97;;;8.10;74.60;;;;;;5023248;28;20052;-68
2022/03/19 05:18:40;;;;;;;14.13;6.20;;;8.10;74.50;;;;;;5029272;28;20040;-68
2022/03/19 05:21:06;;;;;;;12.07;6.22;;;8.10;74.50;;;;;;5028785;28;20026;-68
2022/03/19 05:23:34;;;;;;;12.48;6.78;;;8.00;74.50;;;;;;5028724;28;20026;-69
2022/03/19 05:25:59;;;;;;;12.88;6.03;;;8.00;74.60;;;;;;5026826;28;20029;-68
2022/03/19 05:28:26;;;;;;;12.85;6.18;;;8.00;74.50;;;;;;5027673;28;20021;-68
2022/03/19 05:30:53;;;;;;;10.18;5.68;;;7.90;74.50;;;;;;5024324;28;20484;-69
2022/03/19 05:33:19;;;;;;;13.13;5.70;;;7.90;74.50;;;;;;5031469;28;20025;-68
2022/03/19 05:35:45;;;;;;;12.00;5.75;;;7.90;74.60;;;;;;5024302;28;20025;-71
2022/03/19 05:38:11;;;;;;;11.48;4.72;;;7.90;75.20;;;;;;5030663;28;20021;-70
2022/03/19 05:40:36;;;;;;;12.32;5.82;;;7.90;74.40;;;;;;5031580;28;20017;-71
2022/03/19 05:43:02;;;;;;;11.18;5.20;;;7.80;74.20;;;;;;5032028;28;20040;-71
2022/03/19 05:45:28;;;;;;;10.93;4.70;;;7.80;74.20;;;;;;5032151;28;20037;-70
2022/03/19 05:47:53;;;;;;;10.50;4.57;;;7.80;74.20;;;;;;5030397;28;20022;-70
2022/03/19 05:50:19;;;;;;;11.85;5.63;;;7.80;74.10;;;;;;5033047;28;20022;-71
2022/03/19 05:52:45;;;;;;;8.52;4.40;;;7.80;73.80;;;;;;5029881;28;20100;-69
2022/03/19 05:55:12;;;;;;;10.77;5.75;;;7.80;73.70;;;;;;5031146;28;20025;-70
2022/03/19 05:57:37;;;;;;;10.45;3.95;;;7.80;73.50;;;;;;5030993;28;20498;-69
2022/03/19 06:00:05;;;;;;;10.07;3.88;;;7.80;73.40;;;;;;5030428;28;20109;-69
2022/03/19 06:02:31;;;;;;;8.43;4.22;;;7.80;73.20;;;;;;5030908;28;20381;-70
2022/03/19 06:04:56;;;;;;;11.80;5.30;;;7.80;72.90;;;;;;5031849;28;20037;-69
2022/03/19 06:07:22;;;;;;;9.25;4.30;;;7.80;72.40;;;;;;5031831;28;20018;-69
2022/03/19 06:09:47;;;;;;;10.95;4.85;;;7.80;72.50;;;;;;5031800;28;20013;-68
2022/03/19 06:12:13;;;;;;;9.75;3.88;;;7.70;72.20;;;;;;5030798;28;20022;-69
2022/03/19 06:14:39;;;;;;;7.28;3.70;;;7.80;72.20;;;;;;5032256;28;20033;-70
2022/03/19 06:17:04;;;;;;;10.23;4.50;;;7.80;72.10;;;;;;5031880;28;20108;-68
2022/03/19 06:19:30;;;;;;;8.98;4.25;;;7.90;71.90;;;;;;5031685;28;20586;-68
2022/03/19 06:21:55;;;;;;;8.65;3.45;;;7.90;71.80;;;;;;5030446;28;20037;-70
2022/03/19 06:24:23;;;;;;;8.98;4.55;;;8.00;71.60;;;;;;5031877;28;20041;-70
2022/03/19 06:26:49;;;;;;;11.63;5.10;;;8.10;71.20;;;;;;5032067;28;20036;-69
2022/03/19 06:29:15;;;;;;;9.73;4.35;;;8.10;70.80;;;;;;5030045;28;20013;-69
2022/03/19 06:31:40;;;;;;;10.40;4.75;;;8.10;70.60;;;;;;5031354;28;20075;-69
2022/03/19 06:34:06;;;;;;;10.60;4.78;;;8.00;70.20;;;;;;5029997;28;20036;-70
2022/03/19 06:39:15;;;;;;;11.57;4.38;;;8.10;69.70;;;;;;5017507;28;20036;-69
2022/03/19 06:41:41;;;;;;;6.57;3.60;;;8.10;69.40;;;;;;5030599;28;20442;-69
2022/03/19 06:44:07;;;;;;;8.40;4.00;;;8.20;69.30;;;;;;5028799;28;20025;-69
2022/03/19 06:46:32;;;;;;;10.52;4.25;;;8.20;69.00;;;;;;5031284;28;20052;-70
2022/03/19 06:48:58;;;;;;;11.30;4.65;;;8.30;68.50;;;;;;5030840;28;20022;-70
2022/03/19 06:51:23;;;;;;;10.20;4.22;;;8.30;67.90;;;;;;5030713;28;20029;-70
2022/03/19 06:53:49;;;;;;;11.93;4.70;;;8.40;67.90;;;;;;5029826;28;20391;-70
2022/03/19 06:56:16;;;;;;;8.25;4.05;;;8.40;67.40;;;;;;5029844;28;20036;-71
2022/03/19 06:58:42;;;;;;;9.02;4.20;;;8.50;67.30;;;;;;5032390;28;20080;-69
2022/03/19 07:01:14;;;;;;;8.07;3.83;;;8.50;66.80;;;;;;5037664;28;20472;-70
2022/03/19 07:03:49;;;;;;;9.55;4.35;;;8.60;66.70;;;;;;5031461;28;20052;-70
2022/03/19 07:06:16;;;;;;;9.65;4.25;;;8.70;65.60;;;;;;5031342;28;20495;-70
2022/03/19 07:08:42;;;;;;;10.93;4.10;;;8.60;64.80;;;;;;5029744;28;20022;-70
2022/03/19 07:11:09;;;;;;;9.52;3.67;;;8.60;64.10;;;;;;5029962;28;20377;-70
2022/03/19 07:13:34;;;;;;;6.85;3.38;;;8.70;64.10;;;;;;5028659;28;20018;-71
2022/03/19 07:16:00;;;;;;;8.60;3.72;;;8.70;63.80;;;;;;5030246;28;20508;-70
2022/03/19 07:18:26;;;;;;;9.85;4.30;;;8.70;63.90;;;;;;5028551;28;20020;-70
2022/03/19 07:20:51;;;;;;;10.02;4.53;;;8.70;64.00;;;;;;5028655;28;20069;-69
2022/03/19 07:23:17;;;;;;;10.00;4.20;;;8.70;64.20;;;;;;5030316;28;20500;-69
2022/03/19 07:25:46;;;;;;;13.30;4.50;;;8.70;64.30;;;;;;5027472;28;20399;-70
2022/03/19 07:28:17;;;;;;;13.70;5.03;;;8.70;64.50;;;;;;5029892;28;20468;-70
2022/03/19 07:30:43;;;;;;;10.48;4.20;;;8.70;64.90;;;;;;5027253;28;20584;-71
2022/03/19 07:33:09;;;;;;;15.32;4.88;;;8.80;65.90;;;;;;5030103;28;20096;-70
2022/03/19 07:35:34;;;;;;;11.98;4.50;;;8.80;65.60;;;;;;5028018;28;20029;-69
2022/03/19 07:38:02;;;;;;;10.60;4.53;;;8.80;65.90;;;;;;5026403;28;20083;-70
2022/03/19 07:43:14;;;;;;;14.45;5.43;;;8.80;66.10;;;;;;5025251;28;20346;-70
2022/03/19 07:45:41;;;;;;;9.15;4.57;;;8.80;66.20;;;;;;5027393;28;20025;-69
2022/03/19 07:48:07;;;;;;;9.98;5.13;;;8.90;66.20;;;;;;5028163;28;20030;-70
2022/03/19 07:50:35;;;;;;;11.40;5.18;;;8.90;66.00;;;;;;5025625;28;20018;-69
2022/03/19 07:53:01;;;;;;;12.88;5.25;;;8.90;66.20;;;;;;5031418;28;20498;-70
2022/03/19 07:55:26;;;;;;;11.65;5.05;;;9.00;66.20;;;;;;5029799;28;20026;-70
2022/03/19 07:57:52;;;;;;;11.05;4.43;;;9.10;65.90;;;;;;5029193;28;20029;-70
2022/03/19 08:00:18;;;;;;;12.38;5.15;;;9.20;65.70;;;;;;5029080;28;20040;-70
2022/03/19 08:02:44;;;;;;;11.60;4.90;;;9.20;65.30;;;;;;5027302;28;20030;-70
2022/03/19 08:05:11;;;;;;;12.23;5.50;;;9.20;65.20;;;;;;5027037;28;20026;-69
2022/03/19 08:07:37;;;;;;;12.65;5.03;;;9.20;64.90;;;;;;5028365;28;20032;-70
2022/03/19 08:10:04;;;;;;;10.50;4.70;;;9.30;64.40;;;;;;5029042;28;20022;-70
2022/03/19 08:12:31;;;;;;;9.55;4.20;;;9.30;64.40;;;;;;5028670;28;20030;-70
2022/03/19 08:14:58;;;;;;;9.65;4.50;;;9.40;64.30;;;;;;5028379;28;20499;-70
2022/03/19 08:17:27;;;;;;;10.90;4.97;;;9.50;63.90;;;;;;5027764;28;20029;-69
2022/03/19 08:19:55;;;;;;;12.43;4.47;;;9.60;63.40;;;;;;5025718;28;20071;-70
2022/03/19 08:22:20;;;;;;;10.13;4.80;;;9.70;63.20;;;;;;5029340;28;20067;-70
2022/03/19 08:24:46;;;;;;;9.23;4.03;;;9.70;62.30;;;;;;5028065;28;20013;-70
2022/03/19 08:27:11;;;;;;;11.18;4.53;;;9.70;61.50;;;;;;5026297;28;20071;-69
2022/03/19 08:29:38;;;;;;;10.35;4.70;;;9.70;61.10;;;;;;5027428;28;20101;-70
2022/03/19 08:32:04;;;;;;;10.63;4.22;;;9.70;61.10;;;;;;5028807;28;20021;-70
2022/03/19 08:34:29;;;;;;;9.40;4.10;;;9.70;61.00;;;;;;5026912;28;20516;-70
2022/03/19 08:36:55;;;;;;;9.27;4.07;;;9.90;60.80;;;;;;5027314;28;20065;-70
2022/03/19 08:42:05;;;;;;;10.00;4.47;;;10.00;60.20;;;;;;5027816;28;20036;-69
2022/03/19 08:44:31;;;;;;;11.25;3.97;;;10.00;59.20;;;;;;5029077;28;20030;-70
2022/03/19 08:46:56;;;;;;;10.02;3.95;;;10.10;59.20;;;;;;5029557;28;20025;-70
2022/03/19 08:49:22;;;;;;;8.23;3.38;;;10.10;58.70;;;;;;5029257;28;20025;-70
2022/03/19 08:51:47;;;;;;;10.23;4.22;;;10.30;58.40;;;;;;5023743;28;20025;-70
2022/03/19 08:54:16;;;;;;;7.53;3.50;;;10.40;57.90;;;;;;5029642;28;20076;-70
2022/03/19 08:56:43;;;;;;;12.05;4.05;;;10.40;57.20;;;;;;5028999;28;20091;-70
2022/03/19 08:59:09;;;;;;;8.88;3.92;;;10.50;56.10;;;;;;5028661;28;20018;-70
2022/03/19 09:01:35;;;;;;;8.45;3.72;;;10.50;55.70;;;;;;5029272;28;20097;-70
2022/03/19 09:04:01;;;;;;;8.43;3.58;;;10.50;54.40;;;;;;5027428;28;20428;-70
2022/03/19 09:06:26;;;;;;;8.98;3.53;;;10.60;55.10;;;;;;5029908;28;20026;-70
2022/03/19 09:08:52;;;;;;;9.32;3.83;;;10.70;55.30;;;;;;5033076;28;20124;-70
2022/03/19 09:11:19;;;;;;;8.63;3.58;;;10.70;54.20;;;;;;5032861;28;20110;-70
2022/03/19 09:13:49;;;;;;;7.80;3.15;;;10.80;54.20;;;;;;5033019;28;20060;-70
2022/03/19 09:16:16;;;;;;;8.63;3.50;;;10.90;54.40;;;;;;5031812;28;20025;-70
2022/03/19 09:18:41;;;;;;;7.57;3.50;;;11.00;52.60;;;;;;5025052;28;20052;-69
2022/03/19 09:21:08;;;;;;;7.95;3.28;;;10.90;51.60;;;;;;5032133;28;20021;-70
2022/03/19 09:23:33;;;;;;;5.38;2.63;;;10.90;51.70;;;;;;5031672;28;20022;-70
2022/03/19 09:25:59;;;;;;;6.78;3.17;;;11.00;52.40;;;;;;5032973;28;20384;-70
2022/03/19 09:28:25;;;;;;;8.82;3.15;;;11.00;51.10;;;;;;5033042;28;20025;-70
2022/03/19 09:30:51;;;;;;;8.05;3.42;;;11.00;50.70;;;;;;5030817;28;20334;-70
2022/03/19 09:33:17;;;;;;;9.07;3.28;;;11.10;51.20;;;;;;5026397;28;20030;-71
2022/03/19 09:35:43;;;;;;;6.35;3.20;;;11.10;49.80;;;;;;5031749;28;20121;-71
2022/03/19 09:38:08;;;;;;;6.65;2.63;;;11.10;48.80;;;;;;5032032;28;20022;-70
2022/03/19 09:40:34;;;;;;;7.68;2.67;;;11.10;47.40;;;;;;5032066;28;20021;-70
2022/03/19 09:42:59;;;;;;;7.70;3.15;;;11.00;46.80;;;;;;5032264;28;20083;-70
2022/03/19 09:45:29;;;;;;;7.07;2.88;;;11.00;45.50;;;;;;5032212;28;20511;-70
2022/03/19 09:47:55;;;;;;;4.65;2.42;;;11.00;46.00;;;;;;5024238;28;20029;-71
2022/03/19 09:50:21;;;;;;;7.88;3.00;;;11.10;45.80;;;;;;5025614;28;20100;-70
2022/03/19 09:52:51;;;;;;;5.80;2.60;;;11.20;45.40;;;;;;5028021;28;20041;-70
2022/03/19 09:55:18;;;;;;;3.85;2.40;;;11.10;44.40;;;;;;5027403;28;20387;-70
2022/03/19 09:57:47;;;;;;;4.97;2.50;;;11.20;45.10;;;;;;5007301;28;20030;-71
2022/03/19 10:00:13;;;;;;;6.13;2.58;;;11.30;45.20;;;;;;5024820;28;20499;-70
2022/03/19 10:02:55;;;;;;;4.72;2.03;;;11.40;44.00;;;;;;5026139;28;20479;-70
2022/03/19 10:10:57;;;;;;;5.10;2.30;;;11.40;41.80;;;;;;5025723;28;20079;-70
2022/03/19 10:13:24;;;;;;;4.15;2.20;;;11.40;41.90;;;;;;5024898;28;20460;-70
2022/03/19 10:15:51;;;;;;;5.28;2.55;;;11.50;42.20;;;;;;5025894;28;20022;-70
2022/03/19 10:18:17;;;;;;;8.10;2.45;;;11.60;41.90;;;;;;5028228;28;20505;-70
2022/03/19 10:20:46;;;;;;;5.13;2.20;;;11.70;41.70;;;;;;5026357;28;20410;-70
2022/03/19 10:23:12;;;;;;;5.10;2.30;;;11.70;41.20;;;;;;5033985;28;20037;-70
2022/03/19 10:25:37;;;;;;;6.75;2.63;;;11.70;41.20;;;;;;5028917;28;20031;-70
2022/03/19 10:28:09;;;;;;;5.28;2.63;;;11.80;41.00;;;;;;5030328;28;20034;-71
2022/03/19 10:30:41;;;;;;;6.10;2.40;;;11.80;41.10;;;;;;5026611;28;20021;-70
2022/03/19 10:33:07;;;;;;;;;;;11.90;41.10;;;;;;5028758;28;20033;-71
2022/03/19 10:35:41;;;;;;;5.63;2.45;;;11.90;40.60;;;;;;5026368;28;19909;-71
2022/03/19 10:38:18;;;;;;;4.80;2.17;;;11.90;40.00;;;;;;5024289;28;20116;-71
2022/03/19 10:40:46;;;;;;;5.68;2.30;;;11.90;39.40;;;;;;5027918;28;20034;-70
2022/03/19 10:43:12;;;;;;;3.95;1.70;;;11.90;39.70;;;;;;5026503;28;20491;-70
2022/03/19 10:45:46;;;;;;;4.38;2.10;;;11.90;40.00;;;;;;5026206;28;20091;-70
2022/03/19 10:48:13;;;;;;;4.30;2.38;;;12.00;38.60;;;;;;5028103;28;20075;-70
2022/03/19 10:50:40;;;;;;;5.05;2.13;;;12.00;38.70;;;;;;5031225;28;20116;-70
2022/03/19 10:53:06;;;;;;;5.68;2.35;;;12.10;38.10;;;;;;5022501;28;20033;-70
2022/03/19 10:55:32;;;;;;;5.93;2.17;;;12.10;37.00;;;;;;5027168;28;20395;-71
2022/03/19 10:57:58;;;;;;;5.60;2.38;;;12.10;37.10;;;;;;5037258;28;20029;-70
2022/03/19 11:00:24;;;;;;;6.40;2.17;;;12.10;37.40;;;;;;5025459;28;20026;-70
2022/03/19 11:02:54;;;;;;;6.40;2.10;;;12.10;37.60;;;;;;5027505;28;20021;-70
2022/03/19 11:05:21;;;;;;;4.43;2.00;;;12.20;37.40;;;;;;5028703;28;20025;-70
2022/03/19 11:07:48;;;;;;;5.43;2.20;;;12.20;37.40;;;;;;5029249;28;20053;-71
2022/03/19 11:10:14;;;;;;;4.25;1.90;;;12.20;37.60;;;;;;5029759;28;20040;-71
2022/03/19 11:12:43;;;;;;;3.78;1.65;;;12.30;38.00;;;;;;5027402;28;20029;-70
2022/03/19 11:15:10;;;;;;;5.38;2.08;;;12.50;37.40;;;;;;5030762;28;20045;-70
2022/03/19 11:17:40;;;;;;;3.83;2.08;;;12.50;36.60;;;;;;5036964;28;20047;-70
2022/03/19 11:20:09;;;;;;;3.97;1.80;;;12.40;37.60;;;;;;5040896;28;20029;-70
2022/03/19 11:22:39;;;;;;;5.55;2.00;;;12.50;34.80;;;;;;5029791;28;20079;-70
2022/03/19 11:25:26;;;;;;;4.10;1.70;;;12.40;33.10;;;;;;5029162;28;20046;-70
2022/03/19 11:28:08;;;;;;;5.75;1.73;;;12.30;33.20;;;;;;5031007;28;20056;-70
2022/03/19 11:30:36;;;;;;;4.00;1.73;;;12.50;33.80;;;;;;5030577;28;20503;-70
2022/03/19 11:33:13;;;;;;;3.13;1.60;;;12.60;33.80;;;;;;5036189;28;20086;-70
2022/03/19 11:35:40;;;;;;;3.92;1.50;;;12.70;34.30;;;;;;5034305;28;20100;-71
2022/03/19 11:38:14;;;;;;;3.88;1.60;;;12.80;34.10;;;;;;5033208;28;20033;-71
2022/03/19 11:40:50;;;;;;;5.18;1.80;;;12.80;35.10;;;;;;5031638;28;20030;-70
2022/03/19 11:43:24;;;;;;;3.15;1.48;;;13.00;34.60;;;;;;5040610;28;20071;-70
2022/03/19 11:46:07;;;;;;;3.78;1.77;;;13.00;34.90;;;;;;5036155;28;20549;-71
2022/03/19 11:48:38;;;;;;;4.07;1.80;;;13.10;35.00;;;;;;5028717;28;20021;-70
2022/03/19 11:51:37;;;;;;;3.47;1.80;;;13.30;35.00;;;;;;5025886;28;20484;-70
2022/03/19 11:54:17;;;;;;;4.07;1.65;;;13.50;35.20;;;;;;5014123;28;20322;-70
2022/03/19 11:56:43;;;;;;;3.60;1.85;;;13.60;34.60;;;;;;5029074;28;20055;-69
2022/03/19 11:59:31;;;;;;;4.18;1.40;;;13.60;34.30;;;;;;5028532;28;20141;-68
2022/03/19 12:02:00;;;;;;;2.70;1.30;;;13.60;32.30;;;;;;5024475;28;20040;-68
2022/03/19 12:04:45;;;;;;;2.30;1.30;;;13.70;32.70;;;;;;5021376;28;20038;-69
2022/03/19 12:07:12;;;;;;;3.40;1.20;;;13.80;32.90;;;;;;5028957;28;20022;-68
2022/03/19 12:09:41;;;;;;;3.13;1.20;;;14.00;32.60;;;;;;5022864;28;20033;-69
2022/03/19 12:12:13;;;;;;;5.13;1.58;;;14.00;31.20;;;;;;5030866;28;20432;-69
2022/03/19 12:14:40;;;;;;;2.70;1.35;;;14.10;31.70;;;;;;5029412;28;20061;-68
2022/03/19 12:17:20;;;;;;;6.55;1.75;;;14.10;31.80;;;;;;5029449;28;20554;-69
2022/03/19 12:19:54;;;;;;;3.60;1.70;;;14.30;32.00;;;;;;5021646;28;20033;-69
2022/03/19 12:22:38;;;;;;;4.40;2.15;;;14.30;32.10;;;;;;5027108;28;20056;-70
2022/03/19 12:25:16;;;;;;;4.97;2.00;;;14.20;32.40;;;;;;5025637;28;20145;-69
2022/03/19 12:27:53;;;;;;;6.10;2.10;;;14.10;32.90;;;;;;5030571;28;20032;-69
2022/03/19 12:30:21;;;;;;;4.90;1.90;;;14.00;32.90;;;;;;5039967;28;20440;-69
2022/03/19 12:32:54;;;;;;;3.75;1.63;;;14.00;32.70;;;;;;5039283;28;20104;-69
2022/03/19 12:35:39;;;;;;;3.28;1.60;;;14.00;32.70;;;;;;5032054;28;20056;-69
2022/03/19 12:38:05;;;;;;;4.03;1.70;;;14.10;33.00;;;;;;5029240;28;20036;-70
2022/03/19 12:41:23;;;;;;;4.32;1.85;;;14.20;32.90;;;;;;5030051;28;20396;-69
2022/03/19 12:43:18;;;;;;;2.70;1.40;;;14.30;32.30;;;;;;5028791;28;20553;-70
2022/03/19 12:45:48;;;;;;;4.32;1.70;;;14.40;32.50;;;;;;5035196;28;20551;-70
2022/03/19 12:48:16;;;;;;;6.22;1.60;;;14.50;32.20;;;;;;5027100;28;20396;-69
2022/03/19 12:50:55;;;;;;;4.40;1.85;;;14.50;31.80;;;;;;5031826;28;20032;-69
2022/03/19 12:53:38;;;;;;;4.25;1.70;;;14.40;30.40;;;;;;5022844;28;20468;-69
2022/03/19 12:56:16;;;;;;;3.72;1.60;;;14.30;31.70;;;;;;5023910;28;20052;-69
2022/03/19 12:58:47;;;;;;;3.17;1.55;;;14.30;32.70;;;;;;5037949;28;20408;-69
2022/03/19 13:01:18;;;;;;;3.03;1.40;;;14.30;33.20;;;;;;5037046;28;20025;-69
2022/03/19 13:03:44;;;;;;;2.95;1.30;;;14.60;33.10;;;;;;5025808;28;20030;-70
2022/03/19 13:06:10;;;;;;;4.15;1.80;;;14.80;32.80;;;;;;5030390;28;20387;-70